sensor_id;sensor_type;location;lat;lon;timestamp;P1;durP1;ratioP1;P2;durP2;ratioP2
35907;SDS011;22003;50.320;8.054;2023-03-03T00:22:37;39.50;;;18.17;;
35907;SDS011;22003;50.320;8.054;2023-03-03T00:27:44;43.20;;;17.50;;
35907;SDS011;22003;50.320;8.054;2023-03-03T00:30:26;46.88;;;17.60;;
35907;SDS011;22003;50.320;8.054;2023-03-03T00:35:42;50.53;;;19.25;;
35907;SDS011;22003;50.320;8.054;2023-03-03T00:38:13;78.95;;;27.95;;
35907;SDS011;22003;50.320;8.054;2023-03-03T00:40:42;53.45;;;20.38;;
35907;SDS011;22003;50.320;8.054;2023-03-03T00:45:49;35.33;;;17.02;;
35907;SDS011;22003;50.320;8.054;2023-03-03T00:48:41;39.55;;;17.20;;
35907;SDS011;22003;50.320;8.054;2023-03-03T00:53:39;38.30;;;15.85;;
35907;SDS011;22003;50.320;8.054;2023-03-03T00:56:04;40.83;;;15.65;;
35907;SDS011;22003;50.320;8.054;2023-03-03T00:58:30;34.47;;;15.45;;
35907;SDS011;22003;50.320;8.054;2023-03-03T01:00:56;27.05;;;13.75;;
35907;SDS011;22003;50.320;8.054;2023-03-03T01:05:58;29.23;;;13.88;;
35907;SDS011;22003;50.320;8.054;2023-03-03T01:08:23;34.05;;;14.65;;
35907;SDS011;22003;50.320;8.054;2023-03-03T01:13:16;33.70;;;14.57;;
35907;SDS011;22003;50.320;8.054;2023-03-03T01:15:42;33.83;;;15.57;;
35907;SDS011;22003;50.320;8.054;2023-03-03T01:18:09;31.98;;;14.98;;
35907;SDS011;22003;50.320;8.054;2023-03-03T01:23:01;54.13;;;20.38;;
35907;SDS011;22003;50.320;8.054;2023-03-03T01:25:27;79.50;;;28.25;;
35907;SDS011;22003;50.320;8.054;2023-03-03T01:27:53;63.83;;;22.90;;
35907;SDS011;22003;50.320;8.054;2023-03-03T01:30:18;55.50;;;21.98;;
35907;SDS011;22003;50.320;8.054;2023-03-03T01:32:43;159.60;;;49.47;;
35907;SDS011;22003;50.320;8.054;2023-03-03T01:35:09;57.75;;;24.63;;
35907;SDS011;22003;50.320;8.054;2023-03-03T01:37:34;38.72;;;16.80;;
35907;SDS011;22003;50.320;8.054;2023-03-03T01:40:00;36.63;;;15.93;;
35907;SDS011;22003;50.320;8.054;2023-03-03T01:42:26;44.50;;;18.25;;
35907;SDS011;22003;50.320;8.054;2023-03-03T01:45:13;56.63;;;23.20;;
35907;SDS011;22003;50.320;8.054;2023-03-03T01:47:44;42.53;;;17.63;;
35907;SDS011;22003;50.320;8.054;2023-03-03T01:50:17;52.33;;;20.10;;
35907;SDS011;22003;50.320;8.054;2023-03-03T01:52:51;46.28;;;19.83;;
35907;SDS011;22003;50.320;8.054;2023-03-03T01:55:19;45.95;;;19.40;;
35907;SDS011;22003;50.320;8.054;2023-03-03T02:00:31;41.28;;;17.05;;
35907;SDS011;22003;50.320;8.054;2023-03-03T02:02:58;37.97;;;16.30;;
35907;SDS011;22003;50.320;8.054;2023-03-03T02:05:23;39.45;;;15.77;;
35907;SDS011;22003;50.320;8.054;2023-03-03T02:07:49;36.17;;;14.43;;
35907;SDS011;22003;50.320;8.054;2023-03-03T02:10:16;33.42;;;15.10;;
35907;SDS011;22003;50.320;8.054;2023-03-03T02:12:44;27.20;;;11.18;;
35907;SDS011;22003;50.320;8.054;2023-03-03T02:15:17;40.92;;;15.73;;
35907;SDS011;22003;50.320;8.054;2023-03-03T02:17:48;31.17;;;14.48;;
35907;SDS011;22003;50.320;8.054;2023-03-03T02:21:01;37.88;;;14.70;;
35907;SDS011;22003;50.320;8.054;2023-03-03T02:23:21;30.17;;;13.88;;
35907;SDS011;22003;50.320;8.054;2023-03-03T02:28:31;29.70;;;13.18;;
35907;SDS011;22003;50.320;8.054;2023-03-03T02:30:58;32.97;;;13.55;;
35907;SDS011;22003;50.320;8.054;2023-03-03T02:33:24;29.75;;;13.30;;
35907;SDS011;22003;50.320;8.054;2023-03-03T02:35:51;29.10;;;13.98;;
35907;SDS011;22003;50.320;8.054;2023-03-03T02:46:17;24.88;;;12.35;;
35907;SDS011;22003;50.320;8.054;2023-03-03T02:48:43;50.80;;;24.92;;
35907;SDS011;22003;50.320;8.054;2023-03-03T02:51:08;38.50;;;17.27;;
35907;SDS011;22003;50.320;8.054;2023-03-03T02:53:33;31.15;;;14.90;;
35907;SDS011;22003;50.320;8.054;2023-03-03T02:55:59;30.13;;;14.65;;
35907;SDS011;22003;50.320;8.054;2023-03-03T02:58:24;33.10;;;15.43;;
35907;SDS011;22003;50.320;8.054;2023-03-03T03:00:49;32.88;;;14.63;;
35907;SDS011;22003;50.320;8.054;2023-03-03T03:03:14;24.58;;;12.38;;
35907;SDS011;22003;50.320;8.054;2023-03-03T03:05:40;31.60;;;13.57;;
35907;SDS011;22003;50.320;8.054;2023-03-03T03:08:05;37.72;;;12.95;;
35907;SDS011;22003;50.320;8.054;2023-03-03T03:10:30;26.75;;;12.60;;
35907;SDS011;22003;50.320;8.054;2023-03-03T03:12:56;27.38;;;12.77;;
35907;SDS011;22003;50.320;8.054;2023-03-03T03:15:21;25.20;;;12.05;;
35907;SDS011;22003;50.320;8.054;2023-03-03T03:17:46;29.10;;;12.43;;
35907;SDS011;22003;50.320;8.054;2023-03-03T03:20:12;33.28;;;12.68;;
35907;SDS011;22003;50.320;8.054;2023-03-03T03:22:37;28.90;;;13.18;;
35907;SDS011;22003;50.320;8.054;2023-03-03T03:25:02;28.52;;;13.18;;
35907;SDS011;22003;50.320;8.054;2023-03-03T03:27:28;23.30;;;12.02;;
35907;SDS011;22003;50.320;8.054;2023-03-03T03:29:53;27.00;;;11.65;;
35907;SDS011;22003;50.320;8.054;2023-03-03T03:32:18;25.65;;;12.00;;
35907;SDS011;22003;50.320;8.054;2023-03-03T03:34:44;31.63;;;12.20;;
35907;SDS011;22003;50.320;8.054;2023-03-03T03:37:09;24.05;;;13.32;;
35907;SDS011;22003;50.320;8.054;2023-03-03T03:39:34;29.30;;;13.35;;
35907;SDS011;22003;50.320;8.054;2023-03-03T03:42:00;34.45;;;13.20;;
35907;SDS011;22003;50.320;8.054;2023-03-03T03:44:26;27.58;;;12.30;;
35907;SDS011;22003;50.320;8.054;2023-03-03T03:46:51;30.58;;;14.82;;
35907;SDS011;22003;50.320;8.054;2023-03-03T03:49:16;35.17;;;14.98;;
35907;SDS011;22003;50.320;8.054;2023-03-03T03:51:41;30.98;;;12.85;;
35907;SDS011;22003;50.320;8.054;2023-03-03T03:54:07;32.17;;;13.85;;
35907;SDS011;22003;50.320;8.054;2023-03-03T03:56:32;30.27;;;13.15;;
35907;SDS011;22003;50.320;8.054;2023-03-03T03:58:57;31.02;;;13.98;;
35907;SDS011;22003;50.320;8.054;2023-03-03T04:01:22;36.55;;;13.95;;
35907;SDS011;22003;50.320;8.054;2023-03-03T04:03:49;32.65;;;13.75;;
35907;SDS011;22003;50.320;8.054;2023-03-03T04:06:14;32.70;;;11.75;;
35907;SDS011;22003;50.320;8.054;2023-03-03T04:08:39;22.80;;;12.30;;
35907;SDS011;22003;50.320;8.054;2023-03-03T04:11:05;27.38;;;12.80;;
35907;SDS011;22003;50.320;8.054;2023-03-03T04:13:30;30.20;;;12.82;;
35907;SDS011;22003;50.320;8.054;2023-03-03T04:15:58;34.03;;;12.65;;
35907;SDS011;22003;50.320;8.054;2023-03-03T04:18:24;28.27;;;13.10;;
35907;SDS011;22003;50.320;8.054;2023-03-03T04:20:49;30.25;;;12.90;;
35907;SDS011;22003;50.320;8.054;2023-03-03T04:23:16;27.88;;;12.70;;
35907;SDS011;22003;50.320;8.054;2023-03-03T04:25:44;26.55;;;11.82;;
35907;SDS011;22003;50.320;8.054;2023-03-03T04:28:10;31.90;;;12.48;;
35907;SDS011;22003;50.320;8.054;2023-03-03T04:30:36;24.98;;;12.43;;
35907;SDS011;22003;50.320;8.054;2023-03-03T04:33:01;25.52;;;11.65;;
35907;SDS011;22003;50.320;8.054;2023-03-03T04:35:26;29.23;;;10.85;;
35907;SDS011;22003;50.320;8.054;2023-03-03T04:37:51;24.92;;;11.50;;
35907;SDS011;22003;50.320;8.054;2023-03-03T04:40:17;21.52;;;10.25;;
35907;SDS011;22003;50.320;8.054;2023-03-03T04:42:42;24.20;;;11.82;;
35907;SDS011;22003;50.320;8.054;2023-03-03T04:45:07;24.08;;;12.15;;
35907;SDS011;22003;50.320;8.054;2023-03-03T04:47:33;25.42;;;11.15;;
35907;SDS011;22003;50.320;8.054;2023-03-03T04:49:59;33.55;;;13.20;;
35907;SDS011;22003;50.320;8.054;2023-03-03T04:52:24;28.65;;;11.88;;
35907;SDS011;22003;50.320;8.054;2023-03-03T04:54:50;24.45;;;11.77;;
35907;SDS011;22003;50.320;8.054;2023-03-03T04:57:15;37.58;;;12.65;;
35907;SDS011;22003;50.320;8.054;2023-03-03T04:59:40;30.58;;;13.38;;
35907;SDS011;22003;50.320;8.054;2023-03-03T05:02:06;28.13;;;13.68;;
35907;SDS011;22003;50.320;8.054;2023-03-03T05:04:31;32.33;;;11.70;;
35907;SDS011;22003;50.320;8.054;2023-03-03T05:06:56;24.58;;;11.10;;
35907;SDS011;22003;50.320;8.054;2023-03-03T05:09:22;28.70;;;12.02;;
35907;SDS011;22003;50.320;8.054;2023-03-03T05:11:47;28.10;;;11.80;;
35907;SDS011;22003;50.320;8.054;2023-03-03T05:14:13;26.00;;;11.40;;
35907;SDS011;22003;50.320;8.054;2023-03-03T05:16:38;23.23;;;11.00;;
35907;SDS011;22003;50.320;8.054;2023-03-03T05:19:03;26.50;;;11.98;;
35907;SDS011;22003;50.320;8.054;2023-03-03T05:21:28;26.90;;;11.15;;
35907;SDS011;22003;50.320;8.054;2023-03-03T05:23:54;30.08;;;11.63;;
35907;SDS011;22003;50.320;8.054;2023-03-03T05:26:19;25.73;;;11.85;;
35907;SDS011;22003;50.320;8.054;2023-03-03T05:28:44;24.20;;;12.02;;
35907;SDS011;22003;50.320;8.054;2023-03-03T05:31:09;30.95;;;12.07;;
35907;SDS011;22003;50.320;8.054;2023-03-03T05:33:35;26.80;;;12.68;;
35907;SDS011;22003;50.320;8.054;2023-03-03T05:36:01;25.90;;;11.45;;
35907;SDS011;22003;50.320;8.054;2023-03-03T05:38:26;27.33;;;12.25;;
35907;SDS011;22003;50.320;8.054;2023-03-03T05:40:51;31.65;;;13.20;;
35907;SDS011;22003;50.320;8.054;2023-03-03T05:43:16;49.83;;;16.42;;
35907;SDS011;22003;50.320;8.054;2023-03-03T05:45:42;45.38;;;19.20;;
35907;SDS011;22003;50.320;8.054;2023-03-03T05:50:35;53.40;;;22.30;;
35907;SDS011;22003;50.320;8.054;2023-03-03T05:53:01;51.17;;;19.60;;
35907;SDS011;22003;50.320;8.054;2023-03-03T05:55:29;41.47;;;17.60;;
35907;SDS011;22003;50.320;8.054;2023-03-03T05:57:57;51.60;;;17.05;;
35907;SDS011;22003;50.320;8.054;2023-03-03T06:00:22;31.45;;;14.30;;
35907;SDS011;22003;50.320;8.054;2023-03-03T06:02:47;30.50;;;14.55;;
35907;SDS011;22003;50.320;8.054;2023-03-03T06:05:13;37.20;;;14.57;;
35907;SDS011;22003;50.320;8.054;2023-03-03T06:07:38;24.85;;;11.77;;
35907;SDS011;22003;50.320;8.054;2023-03-03T06:10:04;37.70;;;14.43;;
35907;SDS011;22003;50.320;8.054;2023-03-03T06:12:30;35.90;;;13.15;;
35907;SDS011;22003;50.320;8.054;2023-03-03T06:14:55;36.03;;;14.05;;
35907;SDS011;22003;50.320;8.054;2023-03-03T06:17:20;30.73;;;13.20;;
35907;SDS011;22003;50.320;8.054;2023-03-03T06:19:46;29.73;;;13.30;;
35907;SDS011;22003;50.320;8.054;2023-03-03T06:22:12;33.13;;;13.95;;
35907;SDS011;22003;50.320;8.054;2023-03-03T06:24:38;35.92;;;14.68;;
35907;SDS011;22003;50.320;8.054;2023-03-03T06:27:03;37.80;;;13.95;;
35907;SDS011;22003;50.320;8.054;2023-03-03T06:29:28;37.80;;;14.77;;
35907;SDS011;22003;50.320;8.054;2023-03-03T06:31:53;46.03;;;19.02;;
35907;SDS011;22003;50.320;8.054;2023-03-03T06:34:19;46.67;;;20.05;;
35907;SDS011;22003;50.320;8.054;2023-03-03T06:36:44;59.75;;;21.88;;
35907;SDS011;22003;50.320;8.054;2023-03-03T06:39:10;85.63;;;29.13;;
35907;SDS011;22003;50.320;8.054;2023-03-03T06:41:35;55.13;;;24.77;;
35907;SDS011;22003;50.320;8.054;2023-03-03T06:44:01;60.88;;;25.30;;
35907;SDS011;22003;50.320;8.054;2023-03-03T06:46:26;65.35;;;25.60;;
35907;SDS011;22003;50.320;8.054;2023-03-03T06:48:52;81.18;;;32.00;;
35907;SDS011;22003;50.320;8.054;2023-03-03T06:51:51;79.15;;;29.98;;
35907;SDS011;22003;50.320;8.054;2023-03-03T06:54:14;82.13;;;31.55;;
35907;SDS011;22003;50.320;8.054;2023-03-03T06:56:41;104.47;;;35.50;;
35907;SDS011;22003;50.320;8.054;2023-03-03T07:01:38;79.72;;;32.17;;
35907;SDS011;22003;50.320;8.054;2023-03-03T07:04:09;84.28;;;33.10;;
35907;SDS011;22003;50.320;8.054;2023-03-03T07:06:57;81.38;;;32.53;;
35907;SDS011;22003;50.320;8.054;2023-03-03T07:09:29;80.50;;;33.55;;
35907;SDS011;22003;50.320;8.054;2023-03-03T07:11:56;82.75;;;32.55;;
35907;SDS011;22003;50.320;8.054;2023-03-03T07:14:25;80.32;;;32.47;;
35907;SDS011;22003;50.320;8.054;2023-03-03T07:17:00;84.85;;;31.10;;
35907;SDS011;22003;50.320;8.054;2023-03-03T07:19:33;79.72;;;32.70;;
35907;SDS011;22003;50.320;8.054;2023-03-03T07:22:00;83.80;;;31.80;;
35907;SDS011;22003;50.320;8.054;2023-03-03T07:24:38;80.90;;;31.35;;
35907;SDS011;22003;50.320;8.054;2023-03-03T07:29:30;83.97;;;33.58;;
35907;SDS011;22003;50.320;8.054;2023-03-03T07:31:56;76.22;;;30.50;;
35907;SDS011;22003;50.320;8.054;2023-03-03T07:34:23;83.45;;;29.65;;
35907;SDS011;22003;50.320;8.054;2023-03-03T07:37:56;77.95;;;31.40;;
35907;SDS011;22003;50.320;8.054;2023-03-03T07:40:05;85.03;;;31.83;;
35907;SDS011;22003;50.320;8.054;2023-03-03T07:42:52;84.18;;;32.97;;
35907;SDS011;22003;50.320;8.054;2023-03-03T07:45:24;74.28;;;29.58;;
35907;SDS011;22003;50.320;8.054;2023-03-03T07:47:53;76.35;;;31.13;;
35907;SDS011;22003;50.320;8.054;2023-03-03T07:50:24;76.60;;;29.42;;
35907;SDS011;22003;50.320;8.054;2023-03-03T07:52:58;75.65;;;30.33;;
35907;SDS011;22003;50.320;8.054;2023-03-03T07:55:38;79.57;;;31.27;;
35907;SDS011;22003;50.320;8.054;2023-03-03T08:03:04;72.53;;;31.05;;
35907;SDS011;22003;50.320;8.054;2023-03-03T08:05:41;74.47;;;29.80;;
35907;SDS011;22003;50.320;8.054;2023-03-03T08:10:52;75.03;;;29.42;;
35907;SDS011;22003;50.320;8.054;2023-03-03T08:13:20;69.75;;;29.58;;
35907;SDS011;22003;50.320;8.054;2023-03-03T08:16:17;67.35;;;26.75;;
35907;SDS011;22003;50.320;8.054;2023-03-03T08:18:49;65.05;;;25.75;;
35907;SDS011;22003;50.320;8.054;2023-03-03T08:21:21;67.70;;;27.65;;
35907;SDS011;22003;50.320;8.054;2023-03-03T08:23:47;70.35;;;28.30;;
35907;SDS011;22003;50.320;8.054;2023-03-03T08:26:15;66.95;;;27.95;;
35907;SDS011;22003;50.320;8.054;2023-03-03T08:28:41;73.45;;;29.67;;
35907;SDS011;22003;50.320;8.054;2023-03-03T08:31:09;57.83;;;25.17;;
35907;SDS011;22003;50.320;8.054;2023-03-03T08:33:42;63.42;;;25.48;;
35907;SDS011;22003;50.320;8.054;2023-03-03T08:36:08;58.08;;;26.30;;
35907;SDS011;22003;50.320;8.054;2023-03-03T08:38:34;62.35;;;25.73;;
35907;SDS011;22003;50.320;8.054;2023-03-03T08:40:59;62.67;;;26.42;;
35907;SDS011;22003;50.320;8.054;2023-03-03T08:43:25;66.70;;;26.90;;
35907;SDS011;22003;50.320;8.054;2023-03-03T08:45:52;61.22;;;24.40;;
35907;SDS011;22003;50.320;8.054;2023-03-03T08:48:22;62.83;;;26.40;;
35907;SDS011;22003;50.320;8.054;2023-03-03T08:50:47;61.75;;;25.92;;
35907;SDS011;22003;50.320;8.054;2023-03-03T08:53:12;61.17;;;25.45;;
35907;SDS011;22003;50.320;8.054;2023-03-03T08:55:39;56.17;;;23.55;;
35907;SDS011;22003;50.320;8.054;2023-03-03T08:58:05;58.77;;;25.13;;
35907;SDS011;22003;50.320;8.054;2023-03-03T09:00:31;52.83;;;23.85;;
35907;SDS011;22003;50.320;8.054;2023-03-03T09:02:56;59.63;;;24.13;;
35907;SDS011;22003;50.320;8.054;2023-03-03T09:05:22;54.55;;;23.27;;
35907;SDS011;22003;50.320;8.054;2023-03-03T09:07:48;52.53;;;23.40;;
35907;SDS011;22003;50.320;8.054;2023-03-03T09:10:16;52.38;;;22.98;;
35907;SDS011;22003;50.320;8.054;2023-03-03T09:12:46;50.45;;;22.00;;
35907;SDS011;22003;50.320;8.054;2023-03-03T09:15:17;58.05;;;22.65;;
35907;SDS011;22003;50.320;8.054;2023-03-03T09:17:44;50.00;;;21.90;;
35907;SDS011;22003;50.320;8.054;2023-03-03T09:20:17;48.10;;;21.70;;
35907;SDS011;22003;50.320;8.054;2023-03-03T09:22:47;54.08;;;21.65;;
35907;SDS011;22003;50.320;8.054;2023-03-03T09:25:33;53.50;;;23.33;;
35907;SDS011;22003;50.320;8.054;2023-03-03T09:28:00;49.55;;;20.80;;
35907;SDS011;22003;50.320;8.054;2023-03-03T09:30:37;42.67;;;20.17;;
35907;SDS011;22003;50.320;8.054;2023-03-03T09:33:26;45.75;;;20.77;;
35907;SDS011;22003;50.320;8.054;2023-03-03T09:39:04;43.90;;;19.48;;
35907;SDS011;22003;50.320;8.054;2023-03-03T09:44:50;47.17;;;19.67;;
35907;SDS011;22003;50.320;8.054;2023-03-03T09:53:30;40.35;;;18.02;;
35907;SDS011;22003;50.320;8.054;2023-03-03T09:56:29;44.30;;;19.13;;
35907;SDS011;22003;50.320;8.054;2023-03-03T10:02:37;46.63;;;18.80;;
35907;SDS011;22003;50.320;8.054;2023-03-03T10:05:18;39.58;;;19.02;;
35907;SDS011;22003;50.320;8.054;2023-03-03T10:10:50;42.50;;;18.88;;
35907;SDS011;22003;50.320;8.054;2023-03-03T10:13:25;36.20;;;17.42;;
35907;SDS011;22003;50.320;8.054;2023-03-03T10:18:46;40.05;;;17.98;;
35907;SDS011;22003;50.320;8.054;2023-03-03T10:21:23;39.15;;;17.85;;
35907;SDS011;22003;50.320;8.054;2023-03-03T10:27:03;41.80;;;16.60;;
35907;SDS011;22003;50.320;8.054;2023-03-03T10:29:47;39.58;;;18.00;;
35907;SDS011;22003;50.320;8.054;2023-03-03T10:32:33;36.20;;;17.15;;
35907;SDS011;22003;50.320;8.054;2023-03-03T10:40:21;36.40;;;16.25;;
35907;SDS011;22003;50.320;8.054;2023-03-03T10:43:18;39.88;;;17.80;;
35907;SDS011;22003;50.320;8.054;2023-03-03T10:46:11;35.35;;;17.05;;
35907;SDS011;22003;50.320;8.054;2023-03-03T10:54:20;37.20;;;16.58;;
35907;SDS011;22003;50.320;8.054;2023-03-03T10:56:52;36.10;;;16.27;;
35907;SDS011;22003;50.320;8.054;2023-03-03T11:02:37;29.55;;;14.50;;
35907;SDS011;22003;50.320;8.054;2023-03-03T11:05:16;34.88;;;14.68;;
35907;SDS011;22003;50.320;8.054;2023-03-03T11:07:56;26.63;;;12.88;;
35907;SDS011;22003;50.320;8.054;2023-03-03T11:10:28;26.67;;;13.10;;
35907;SDS011;22003;50.320;8.054;2023-03-03T11:13:15;25.02;;;12.50;;
35907;SDS011;22003;50.320;8.054;2023-03-03T11:15:51;29.45;;;13.90;;
35907;SDS011;22003;50.320;8.054;2023-03-03T11:18:50;31.38;;;13.45;;
35907;SDS011;22003;50.320;8.054;2023-03-03T11:21:39;28.85;;;14.27;;
35907;SDS011;22003;50.320;8.054;2023-03-03T11:24:29;29.23;;;13.70;;
35907;SDS011;22003;50.320;8.054;2023-03-03T11:29:50;26.65;;;13.80;;
35907;SDS011;22003;50.320;8.054;2023-03-03T11:32:40;26.45;;;13.15;;
35907;SDS011;22003;50.320;8.054;2023-03-03T11:37:53;28.85;;;13.73;;
35907;SDS011;22003;50.320;8.054;2023-03-03T11:40:33;28.85;;;12.48;;
35907;SDS011;22003;50.320;8.054;2023-03-03T11:43:26;26.88;;;12.60;;
35907;SDS011;22003;50.320;8.054;2023-03-03T11:45:58;23.27;;;12.48;;
35907;SDS011;22003;50.320;8.054;2023-03-03T11:51:06;24.38;;;12.40;;
35907;SDS011;22003;50.320;8.054;2023-03-03T11:57:13;26.33;;;12.85;;
35907;SDS011;22003;50.320;8.054;2023-03-03T12:19:04;26.25;;;12.40;;
35907;SDS011;22003;50.320;8.054;2023-03-03T12:21:40;22.30;;;11.43;;
35907;SDS011;22003;50.320;8.054;2023-03-03T12:37:46;24.90;;;11.68;;
35907;SDS011;22003;50.320;8.054;2023-03-03T12:40:40;23.13;;;11.20;;
35907;SDS011;22003;50.320;8.054;2023-03-03T12:43:42;23.77;;;12.93;;
35907;SDS011;22003;50.320;8.054;2023-03-03T12:49:09;19.75;;;10.98;;
35907;SDS011;22003;50.320;8.054;2023-03-03T13:00:20;24.77;;;11.77;;
35907;SDS011;22003;50.320;8.054;2023-03-03T13:08:17;21.60;;;11.55;;
35907;SDS011;22003;50.320;8.054;2023-03-03T13:10:59;21.20;;;10.52;;
35907;SDS011;22003;50.320;8.054;2023-03-03T13:13:52;22.73;;;11.85;;
35907;SDS011;22003;50.320;8.054;2023-03-03T13:16:26;20.98;;;10.38;;
35907;SDS011;22003;50.320;8.054;2023-03-03T13:18:59;23.10;;;12.38;;
35907;SDS011;22003;50.320;8.054;2023-03-03T13:21:49;21.00;;;11.80;;
35907;SDS011;22003;50.320;8.054;2023-03-03T13:26:54;21.88;;;10.30;;
35907;SDS011;22003;50.320;8.054;2023-03-03T13:29:49;17.55;;;10.65;;
35907;SDS011;22003;50.320;8.054;2023-03-03T13:32:23;19.58;;;10.93;;
35907;SDS011;22003;50.320;8.054;2023-03-03T13:37:54;21.85;;;10.75;;
35907;SDS011;22003;50.320;8.054;2023-03-03T13:40:23;20.30;;;11.20;;
35907;SDS011;22003;50.320;8.054;2023-03-03T13:42:56;19.77;;;10.88;;
35907;SDS011;22003;50.320;8.054;2023-03-03T13:45:34;18.15;;;9.93;;
35907;SDS011;22003;50.320;8.054;2023-03-03T13:54:23;17.13;;;10.13;;
35907;SDS011;22003;50.320;8.054;2023-03-03T13:57:15;20.63;;;10.02;;
35907;SDS011;22003;50.320;8.054;2023-03-03T14:02:42;16.23;;;9.75;;
35907;SDS011;22003;50.320;8.054;2023-03-03T14:05:16;19.33;;;10.65;;
35907;SDS011;22003;50.320;8.054;2023-03-03T14:19:04;23.45;;;13.00;;
35907;SDS011;22003;50.320;8.054;2023-03-03T14:21:39;24.30;;;11.93;;
35907;SDS011;22003;50.320;8.054;2023-03-03T14:24:18;21.33;;;12.15;;
35907;SDS011;22003;50.320;8.054;2023-03-03T14:26:55;23.95;;;12.98;;
35907;SDS011;22003;50.320;8.054;2023-03-03T14:29:28;25.63;;;14.80;;
35907;SDS011;22003;50.320;8.054;2023-03-03T14:32:00;27.67;;;14.77;;
35907;SDS011;22003;50.320;8.054;2023-03-03T14:34:36;27.92;;;13.48;;
35907;SDS011;22003;50.320;8.054;2023-03-03T14:37:22;27.98;;;14.77;;
35907;SDS011;22003;50.320;8.054;2023-03-03T14:39:59;28.75;;;15.35;;
35907;SDS011;22003;50.320;8.054;2023-03-03T14:42:46;33.63;;;17.35;;
35907;SDS011;22003;50.320;8.054;2023-03-03T14:45:19;35.10;;;17.05;;
35907;SDS011;22003;50.320;8.054;2023-03-03T14:48:16;33.70;;;17.17;;
35907;SDS011;22003;50.320;8.054;2023-03-03T14:50:50;32.53;;;17.55;;
35907;SDS011;22003;50.320;8.054;2023-03-03T14:55:44;40.58;;;20.02;;
35907;SDS011;22003;50.320;8.054;2023-03-03T15:06:40;32.05;;;17.85;;
35907;SDS011;22003;50.320;8.054;2023-03-03T15:09:27;37.10;;;19.63;;
35907;SDS011;22003;50.320;8.054;2023-03-03T15:11:57;35.88;;;18.08;;
35907;SDS011;22003;50.320;8.054;2023-03-03T15:14:31;31.70;;;16.60;;
35907;SDS011;22003;50.320;8.054;2023-03-03T15:17:18;32.22;;;16.85;;
35907;SDS011;22003;50.320;8.054;2023-03-03T15:22:46;37.97;;;18.33;;
35907;SDS011;22003;50.320;8.054;2023-03-03T15:25:21;36.83;;;18.10;;
35907;SDS011;22003;50.320;8.054;2023-03-03T15:27:51;34.35;;;18.17;;
35907;SDS011;22003;50.320;8.054;2023-03-03T15:30:32;32.83;;;17.58;;
35907;SDS011;22003;50.320;8.054;2023-03-03T15:33:17;35.88;;;17.73;;
35907;SDS011;22003;50.320;8.054;2023-03-03T15:36:07;36.40;;;17.10;;
35907;SDS011;22003;50.320;8.054;2023-03-03T15:38:44;34.88;;;17.67;;
35907;SDS011;22003;50.320;8.054;2023-03-03T15:41:34;35.40;;;17.48;;
35907;SDS011;22003;50.320;8.054;2023-03-03T15:44:21;33.58;;;16.48;;
35907;SDS011;22003;50.320;8.054;2023-03-03T15:47:09;37.10;;;15.95;;
35907;SDS011;22003;50.320;8.054;2023-03-03T15:58:19;33.60;;;15.95;;
35907;SDS011;22003;50.320;8.054;2023-03-03T16:01:06;32.50;;;16.27;;
35907;SDS011;22003;50.320;8.054;2023-03-03T16:03:46;35.33;;;17.27;;
35907;SDS011;22003;50.320;8.054;2023-03-03T16:11:53;36.97;;;17.00;;
35907;SDS011;22003;50.320;8.054;2023-03-03T16:20:02;33.78;;;14.73;;
35907;SDS011;22003;50.320;8.054;2023-03-03T16:28:44;34.22;;;15.48;;
35907;SDS011;22003;50.320;8.054;2023-03-03T16:31:33;34.00;;;15.07;;
35907;SDS011;22003;50.320;8.054;2023-03-03T16:34:11;29.17;;;14.38;;
35907;SDS011;22003;50.320;8.054;2023-03-03T16:36:49;35.90;;;15.73;;
35907;SDS011;22003;50.320;8.054;2023-03-03T16:39:37;35.67;;;15.55;;
35907;SDS011;22003;50.320;8.054;2023-03-03T16:50:34;34.38;;;16.00;;
35907;SDS011;22003;50.320;8.054;2023-03-03T16:58:49;30.15;;;14.27;;
35907;SDS011;22003;50.320;8.054;2023-03-03T17:01:49;35.35;;;14.68;;
35907;SDS011;22003;50.320;8.054;2023-03-03T17:07:09;32.63;;;14.70;;
35907;SDS011;22003;50.320;8.054;2023-03-03T17:09:48;33.40;;;15.65;;
35907;SDS011;22003;50.320;8.054;2023-03-03T17:12:24;31.00;;;14.32;;
35907;SDS011;22003;50.320;8.054;2023-03-03T17:15:21;37.67;;;16.23;;
35907;SDS011;22003;50.320;8.054;2023-03-03T17:18:10;35.17;;;15.27;;
35907;SDS011;22003;50.320;8.054;2023-03-03T17:20:48;38.78;;;16.38;;
35907;SDS011;22003;50.320;8.054;2023-03-03T17:35:03;48.00;;;20.08;;
35907;SDS011;22003;50.320;8.054;2023-03-03T17:40:17;48.75;;;22.45;;
35907;SDS011;22003;50.320;8.054;2023-03-03T17:43:10;51.13;;;23.13;;
35907;SDS011;22003;50.320;8.054;2023-03-03T17:45:42;57.58;;;23.55;;
35907;SDS011;22003;50.320;8.054;2023-03-03T18:13:09;69.78;;;26.80;;
35907;SDS011;22003;50.320;8.054;2023-03-03T18:37:54;77.80;;;28.08;;
35907;SDS011;22003;50.320;8.054;2023-03-03T18:42:48;72.00;;;27.08;;
35907;SDS011;22003;50.320;8.054;2023-03-03T18:48:03;72.80;;;25.55;;
35907;SDS011;22003;50.320;8.054;2023-03-03T18:53:11;71.47;;;28.52;;
35907;SDS011;22003;50.320;8.054;2023-03-03T18:55:43;75.22;;;28.27;;
35907;SDS011;22003;50.320;8.054;2023-03-03T19:00:43;75.75;;;27.67;;
35907;SDS011;22003;50.320;8.054;2023-03-03T19:03:23;82.53;;;27.42;;
35907;SDS011;22003;50.320;8.054;2023-03-03T19:05:49;85.88;;;27.38;;
35907;SDS011;22003;50.320;8.054;2023-03-03T19:08:21;80.82;;;26.92;;
35907;SDS011;22003;50.320;8.054;2023-03-03T19:16:51;77.68;;;28.27;;
35907;SDS011;22003;50.320;8.054;2023-03-03T19:19:27;82.43;;;27.13;;
35907;SDS011;22003;50.320;8.054;2023-03-03T19:22:29;80.50;;;28.77;;
35907;SDS011;22003;50.320;8.054;2023-03-03T19:27:38;85.80;;;28.75;;
35907;SDS011;22003;50.320;8.054;2023-03-03T19:30:48;88.72;;;28.98;;
35907;SDS011;22003;50.320;8.054;2023-03-03T19:33:17;91.82;;;30.70;;
35907;SDS011;22003;50.320;8.054;2023-03-03T19:38:41;101.85;;;31.65;;
35907;SDS011;22003;50.320;8.054;2023-03-03T19:41:44;90.40;;;29.63;;
35907;SDS011;22003;50.320;8.054;2023-03-03T19:47:00;84.70;;;27.00;;
35907;SDS011;22003;50.320;8.054;2023-03-03T19:52:48;90.50;;;29.27;;
35907;SDS011;22003;50.320;8.054;2023-03-03T19:55:22;93.05;;;31.17;;
35907;SDS011;22003;50.320;8.054;2023-03-03T19:58:19;104.75;;;31.60;;
35907;SDS011;22003;50.320;8.054;2023-03-03T20:09:18;101.10;;;32.08;;
35907;SDS011;22003;50.320;8.054;2023-03-03T20:12:05;100.63;;;32.80;;
35907;SDS011;22003;50.320;8.054;2023-03-03T20:15:15;107.00;;;31.67;;
35907;SDS011;22003;50.320;8.054;2023-03-03T20:17:43;100.60;;;31.55;;
35907;SDS011;22003;50.320;8.054;2023-03-03T20:26:00;101.97;;;32.95;;
35907;SDS011;22003;50.320;8.054;2023-03-03T20:33:58;104.20;;;29.20;;
35907;SDS011;22003;50.320;8.054;2023-03-03T20:36:28;103.18;;;33.20;;
35907;SDS011;22003;50.320;8.054;2023-03-03T20:39:10;93.45;;;29.83;;
35907;SDS011;22003;50.320;8.054;2023-03-03T20:41:49;108.35;;;32.55;;
35907;SDS011;22003;50.320;8.054;2023-03-03T20:47:01;97.15;;;29.98;;
35907;SDS011;22003;50.320;8.054;2023-03-03T20:55:13;102.30;;;30.90;;
35907;SDS011;22003;50.320;8.054;2023-03-03T20:57:58;96.22;;;30.88;;
35907;SDS011;22003;50.320;8.054;2023-03-03T21:00:38;86.13;;;28.85;;